createdAt,value
2023-03-26T00:03:21.364Z,47.06
2023-03-26T00:07:21.478Z,46.59
2023-03-26T00:11:21.603Z,45.89
2023-03-26T00:15:21.743Z,47.79
2023-03-26T00:19:21.854Z,44.17
2023-03-26T00:23:21.970Z,45.27
2023-03-26T00:27:22.074Z,42.62
2023-03-26T00:31:22.270Z,44.34
2023-03-26T00:35:22.333Z,43.58
2023-03-26T00:39:22.390Z,41.57
2023-03-26T00:43:22.517Z,42.70
2023-03-26T00:47:22.610Z,39.70
2023-03-26T00:51:22.703Z,37.67
2023-03-26T00:55:22.811Z,39.74
2023-03-26T00:59:22.906Z,38.73
2023-03-26T01:03:27.472Z,37.87
2023-03-26T01:07:22.930Z,39.76
2023-03-26T01:11:22.893Z,39.99
2023-03-26T01:15:22.868Z,38.94
2023-03-26T01:19:22.898Z,42.58
2023-03-26T01:23:22.809Z,38.87
2023-03-26T01:27:22.919Z,38.78
2023-03-26T01:31:23.023Z,39.59
2023-03-26T01:35:23.201Z,41.17
2023-03-26T01:39:23.220Z,39.54
2023-03-26T01:43:23.342Z,37.66
2023-03-26T01:47:23.496Z,37.48
2023-03-26T01:51:23.552Z,37.77
2023-03-26T01:55:23.520Z,40.16
2023-03-26T01:59:23.536Z,39.52
2023-03-26T02:03:23.711Z,34.74
2023-03-26T02:07:23.521Z,36.79
2023-03-26T02:11:23.516Z,35.07
2023-03-26T02:15:23.495Z,35.01
2023-03-26T02:19:23.640Z,35.61
2023-03-26T02:23:23.449Z,38.22
2023-03-26T02:27:23.427Z,35.82
2023-03-26T02:31:23.425Z,37.14
2023-03-26T02:35:23.569Z,35.31
2023-03-26T02:39:23.405Z,32.04
2023-03-26T02:43:23.494Z,35.51
2023-03-26T02:47:23.420Z,32.79
2023-03-26T02:51:23.540Z,38.19
2023-03-26T02:55:23.675Z,34.81
2023-03-26T02:59:23.762Z,34.59
2023-03-26T03:03:23.917Z,33.58
2023-03-26T03:07:23.977Z,34.94
2023-03-26T03:11:24.081Z,30.12
2023-03-26T03:15:24.192Z,34.64
2023-03-26T03:19:24.290Z,31.59
2023-03-26T03:23:24.403Z,31.35
2023-03-26T03:27:24.496Z,32.51
2023-03-26T03:31:24.694Z,32.48
2023-03-26T03:35:24.766Z,32.44
2023-03-26T03:39:24.815Z,32.94
2023-03-26T03:43:24.923Z,31.53
2023-03-26T03:47:25.066Z,32.36
2023-03-26T03:51:25.138Z,31.29
2023-03-26T03:55:25.235Z,30.81
2023-03-26T03:59:25.340Z,29.86
2023-03-26T04:03:33.004Z,26.98
2023-03-26T04:07:26.416Z,27.27
2023-03-26T04:11:25.407Z,26.38
2023-03-26T04:15:25.337Z,31.76
2023-03-26T04:19:25.293Z,29.53
2023-03-26T04:23:25.366Z,28.39
2023-03-26T04:27:25.499Z,26.83
2023-03-26T04:31:25.616Z,29.29
2023-03-26T04:35:25.762Z,26.89
2023-03-26T04:39:25.811Z,28.81
2023-03-26T04:43:25.929Z,31.78
2023-03-26T04:47:26.088Z,28.79
2023-03-26T04:51:26.149Z,27.77
2023-03-26T04:55:26.256Z,28.91
2023-03-26T04:59:26.376Z,27.86
2023-03-26T05:03:26.492Z,29.23
2023-03-26T05:07:26.619Z,29.39
2023-03-26T05:11:26.736Z,29.17
2023-03-26T05:15:26.829Z,27.98
2023-03-26T05:19:26.965Z,28.26
2023-03-26T05:23:27.081Z,30.36
2023-03-26T05:27:27.206Z,29.39
2023-03-26T05:31:27.304Z,28.67
2023-03-26T05:35:27.550Z,29.19
2023-03-26T05:39:27.571Z,29.34
2023-03-26T05:43:27.703Z,26.90
2023-03-26T05:47:27.874Z,27.45
2023-03-26T05:51:27.961Z,28.45
2023-03-26T05:55:28.080Z,28.71
2023-03-26T05:59:28.202Z,30.78
2023-03-26T06:03:28.366Z,27.39
2023-03-26T06:07:28.421Z,28.52
2023-03-26T06:11:28.542Z,32.37
2023-03-26T06:15:28.647Z,30.89
2023-03-26T06:19:28.757Z,30.59
2023-03-26T06:23:28.860Z,29.80
2023-03-26T06:27:28.951Z,28.60
2023-03-26T06:31:29.148Z,28.32
2023-03-26T06:35:29.172Z,29.88
2023-03-26T06:39:29.289Z,31.88
2023-03-26T06:43:29.400Z,31.77
2023-03-26T06:47:29.531Z,32.55
2023-03-26T06:51:29.575Z,29.84
2023-03-26T06:55:29.696Z,31.42
2023-03-26T06:59:29.772Z,31.99
2023-03-26T07:03:29.858Z,30.61
2023-03-26T07:07:29.945Z,31.24
2023-03-26T07:11:30.431Z,29.94
2023-03-26T07:15:30.164Z,29.04
2023-03-26T07:19:30.277Z,29.72
2023-03-26T07:23:30.397Z,31.56
2023-03-26T07:27:30.512Z,31.37
2023-03-26T07:31:30.638Z,29.57
2023-03-26T07:35:30.822Z,33.00
2023-03-26T07:39:30.844Z,29.79
2023-03-26T07:43:30.954Z,32.27
2023-03-26T07:47:31.090Z,35.24
2023-03-26T07:51:31.166Z,33.71
2023-03-26T07:55:31.260Z,31.57
2023-03-26T07:59:31.353Z,32.36
2023-03-26T08:03:31.602Z,36.92
2023-03-26T08:07:31.524Z,35.32
2023-03-26T08:11:31.588Z,34.27
2023-03-26T08:15:31.673Z,37.56
2023-03-26T08:19:31.722Z,34.94
2023-03-26T08:23:31.800Z,37.07
2023-03-26T08:27:31.861Z,35.62
2023-03-26T08:31:31.971Z,35.88
2023-03-26T08:35:32.041Z,34.81
2023-03-26T08:39:32.089Z,34.70
2023-03-26T08:43:32.158Z,33.19
2023-03-26T08:47:32.233Z,32.85
2023-03-26T08:51:32.298Z,32.12
2023-03-26T08:55:32.370Z,32.66
2023-03-26T08:59:32.450Z,33.87
2023-03-26T09:03:32.546Z,32.21
2023-03-26T09:07:32.612Z,33.83
2023-03-26T09:11:32.713Z,33.06
2023-03-26T09:15:32.809Z,31.87
2023-03-26T09:19:32.872Z,32.98
2023-03-26T09:23:32.953Z,34.27
2023-03-26T09:27:33.047Z,34.21
2023-03-26T09:31:33.174Z,32.79
2023-03-26T09:35:33.273Z,33.80
2023-03-26T09:39:33.278Z,35.87
2023-03-26T09:43:33.353Z,34.08
2023-03-26T09:47:33.501Z,34.44
2023-03-26T09:51:33.521Z,34.62
2023-03-26T09:55:33.619Z,34.12
2023-03-26T09:59:33.687Z,36.22
2023-03-26T10:03:33.827Z,33.40
2023-03-26T10:07:33.853Z,32.19
2023-03-26T10:11:33.935Z,34.36
2023-03-26T10:15:34.011Z,34.99
2023-03-26T10:19:34.083Z,36.09
2023-03-26T10:23:34.166Z,32.94
2023-03-26T10:27:34.242Z,34.97
2023-03-26T10:31:34.320Z,35.77
2023-03-26T10:35:34.416Z,33.75
2023-03-26T10:39:38.202Z,34.52
2023-03-26T10:43:35.422Z,36.93
2023-03-26T10:47:34.398Z,35.02
2023-03-26T10:51:34.300Z,36.88
2023-03-26T10:55:34.242Z,32.43
2023-03-26T10:59:34.221Z,35.22
2023-03-26T11:03:34.315Z,36.04
2023-03-26T11:07:34.411Z,35.16
2023-03-26T11:11:34.496Z,34.06
2023-03-26T11:15:34.569Z,32.34
2023-03-26T11:19:34.615Z,33.37
2023-03-26T11:23:34.687Z,30.96
2023-03-26T11:27:34.745Z,31.89
2023-03-26T11:31:34.854Z,30.57
2023-03-26T11:35:40.420Z,31.36
2023-03-26T11:39:35.796Z,32.59
2023-03-26T11:43:34.744Z,29.52
2023-03-26T11:47:34.757Z,28.05
2023-03-26T11:51:34.618Z,27.23
2023-03-26T11:55:34.603Z,29.81
2023-03-26T11:59:41.965Z,31.07
2023-03-26T12:03:35.607Z,28.05
2023-03-26T12:07:34.532Z,26.72
2023-03-26T12:11:35.401Z,28.60
2023-03-26T12:15:34.426Z,30.75
2023-03-26T12:19:34.353Z,30.18
2023-03-26T12:23:34.277Z,29.03
2023-03-26T12:27:34.287Z,28.07
2023-03-26T12:31:34.296Z,25.75
2023-03-26T12:35:34.305Z,28.98
2023-03-26T12:40:08.111Z,27.53
2023-03-26T12:44:53.234Z,28.62
2023-03-26T12:48:00.848Z,28.24
2023-03-26T12:51:34.989Z,29.84
2023-03-26T12:55:33.908Z,29.08
2023-03-26T12:59:33.816Z,26.83
2023-03-26T13:03:33.765Z,28.05
2023-03-26T13:07:33.636Z,29.71
2023-03-26T13:11:33.563Z,27.00
2023-03-26T13:15:33.497Z,25.00
2023-03-26T13:19:33.410Z,27.87
2023-03-26T13:23:33.324Z,27.20
2023-03-26T13:27:33.239Z,31.06
2023-03-26T13:31:33.183Z,28.62
2023-03-26T13:35:33.173Z,28.33
2023-03-26T13:39:33.054Z,29.70
2023-03-26T13:43:32.984Z,29.19
2023-03-26T13:47:32.927Z,30.23
2023-03-26T13:51:32.849Z,29.24
2023-03-26T13:55:32.809Z,27.41
2023-03-26T13:59:32.761Z,31.44
2023-03-26T14:03:32.770Z,31.56
2023-03-26T14:07:32.672Z,28.55
2023-03-26T14:11:33.084Z,29.32
2023-03-26T14:15:32.546Z,29.80
2023-03-26T14:19:32.464Z,33.49
2023-03-26T14:23:32.387Z,31.18
2023-03-26T14:27:32.327Z,36.16
2023-03-26T14:31:32.628Z,34.12
2023-03-26T14:35:32.199Z,34.08
2023-03-26T14:39:32.055Z,35.20
2023-03-26T14:43:31.995Z,35.92
2023-03-26T14:47:32.004Z,37.29
2023-03-26T14:51:31.904Z,34.75
2023-03-26T14:55:32.577Z,39.64
2023-03-26T14:59:31.807Z,37.90
2023-03-26T15:03:31.828Z,36.66
2023-03-26T15:07:31.725Z,39.79
2023-03-26T15:11:31.673Z,38.81
2023-03-26T15:15:31.636Z,39.86
2023-03-26T15:19:31.588Z,39.17
2023-03-26T15:23:31.539Z,39.81
2023-03-26T15:27:31.503Z,40.26
2023-03-26T15:31:31.458Z,41.57
2023-03-26T15:35:31.377Z,41.56
2023-03-26T15:39:31.321Z,42.44
2023-03-26T15:43:31.279Z,40.93
2023-03-26T15:47:31.263Z,39.93
2023-03-26T15:51:31.193Z,39.49
2023-03-26T15:55:31.176Z,39.19
2023-03-26T15:59:31.145Z,40.16
2023-03-26T16:03:31.044Z,36.88
2023-03-26T16:07:31.007Z,39.87
2023-03-26T16:11:30.956Z,38.33
2023-03-26T16:15:30.970Z,40.16
2023-03-26T16:19:30.857Z,40.59
2023-03-26T16:23:30.825Z,39.75
2023-03-26T16:27:30.787Z,40.39
2023-03-26T16:31:38.178Z,43.09
2023-03-26T16:35:31.900Z,41.53
2023-03-26T16:39:30.614Z,42.35
2023-03-26T16:43:30.529Z,42.59
2023-03-26T16:47:30.504Z,42.62
2023-03-26T16:51:30.417Z,42.50
2023-03-26T16:55:30.354Z,43.28
2023-03-26T16:59:30.287Z,45.08
2023-03-26T17:03:30.341Z,44.20
2023-03-26T17:07:30.166Z,43.42
2023-03-26T17:11:30.119Z,46.08
2023-03-26T17:15:30.064Z,45.63
2023-03-26T17:19:29.996Z,44.55
2023-03-26T17:23:29.936Z,48.50
2023-03-26T17:27:29.897Z,46.30
2023-03-26T17:31:29.839Z,44.41
2023-03-26T17:35:29.764Z,45.49
2023-03-26T17:39:29.732Z,45.98
2023-03-26T17:43:29.763Z,46.56
2023-03-26T17:47:29.745Z,44.33
2023-03-26T17:51:29.698Z,46.07
2023-03-26T17:55:29.674Z,45.97
2023-03-26T17:59:29.669Z,43.89
2023-03-26T18:03:31.026Z,46.94
2023-03-26T18:07:29.663Z,45.80
2023-03-26T18:11:29.663Z,45.79
2023-03-26T18:15:29.774Z,42.42
2023-03-26T18:19:29.619Z,44.76
2023-03-26T18:23:29.614Z,45.26
2023-03-26T18:27:29.604Z,47.49
2023-03-26T18:31:29.599Z,44.21
2023-03-26T18:35:29.612Z,46.63
2023-03-26T18:39:29.539Z,48.69
2023-03-26T18:43:34.840Z,49.70
2023-03-26T18:47:30.508Z,48.33
2023-03-26T18:51:31.699Z,51.18
2023-03-26T18:55:29.378Z,51.27
2023-03-26T18:59:29.369Z,51.63
2023-03-26T19:03:29.431Z,47.99
2023-03-26T19:07:29.318Z,47.55
2023-03-26T19:11:29.298Z,50.93
2023-03-26T19:15:29.282Z,50.29
2023-03-26T19:19:29.266Z,49.53
2023-03-26T19:23:29.252Z,48.28
2023-03-26T19:51:29.063Z,42.82
